sensor_id;sensor_type;location;lat;lon;timestamp;pressure;altitude;pressure_sealevel;temperature;humidity
3434;BME280;1730;41.932;25.548;2023-07-28T00:00:22;99029.28;;;19.97;100.00
3434;BME280;1730;41.932;25.548;2023-07-28T00:02:49;99022.81;;;19.92;100.00
3434;BME280;1730;41.932;25.548;2023-07-28T00:05:14;99021.12;;;19.91;100.00
3434;BME280;1730;41.932;25.548;2023-07-28T00:07:40;99015.41;;;19.92;100.00
3434;BME280;1730;41.932;25.548;2023-07-28T00:10:07;99015.00;;;19.95;100.00
3434;BME280;1730;41.932;25.548;2023-07-28T00:12:34;99025.50;;;19.98;100.00
3434;BME280;1730;41.932;25.548;2023-07-28T00:14:59;99031.84;;;19.92;100.00
3434;BME280;1730;41.932;25.548;2023-07-28T00:17:25;99010.72;;;19.74;100.00
3434;BME280;1730;41.932;25.548;2023-07-28T00:19:51;99042.22;;;19.84;100.00
3434;BME280;1730;41.932;25.548;2023-07-28T00:22:16;99046.59;;;19.91;100.00
3434;BME280;1730;41.932;25.548;2023-07-28T00:24:42;99049.09;;;19.93;100.00
3434;BME280;1730;41.932;25.548;2023-07-28T00:27:07;99056.91;;;19.89;100.00
3434;BME280;1730;41.932;25.548;2023-07-28T00:29:32;99051.41;;;19.96;100.00
3434;BME280;1730;41.932;25.548;2023-07-28T00:31:58;99050.56;;;19.95;100.00
3434;BME280;1730;41.932;25.548;2023-07-28T00:34:23;99059.56;;;19.71;100.00
3434;BME280;1730;41.932;25.548;2023-07-28T00:36:49;99063.19;;;19.65;100.00
3434;BME280;1730;41.932;25.548;2023-07-28T00:39:15;99056.97;;;19.45;100.00
3434;BME280;1730;41.932;25.548;2023-07-28T00:41:42;99062.84;;;19.42;100.00
3434;BME280;1730;41.932;25.548;2023-07-28T00:44:09;99056.31;;;19.49;100.00
3434;BME280;1730;41.932;25.548;2023-07-28T00:46:35;99056.47;;;19.61;100.00
3434;BME280;1730;41.932;25.548;2023-07-28T00:49:01;99066.69;;;19.78;100.00
3434;BME280;1730;41.932;25.548;2023-07-28T00:51:28;99062.94;;;19.73;100.00
3434;BME280;1730;41.932;25.548;2023-07-28T00:53:56;99025.06;;;19.19;100.00
3434;BME280;1730;41.932;25.548;2023-07-28T00:56:24;99023.22;;;19.13;100.00
3434;BME280;1730;41.932;25.548;2023-07-28T00:58:50;99080.03;;;19.62;100.00
3434;BME280;1730;41.932;25.548;2023-07-28T01:01:16;99076.81;;;19.71;100.00
3434;BME280;1730;41.932;25.548;2023-07-28T01:03:43;99083.00;;;19.60;100.00
3434;BME280;1730;41.932;25.548;2023-07-28T01:06:16;99018.19;;;19.61;100.00
3434;BME280;1730;41.932;25.548;2023-07-28T01:09:00;99080.91;;;19.94;100.00
3434;BME280;1730;41.932;25.548;2023-07-28T01:11:28;99079.06;;;19.88;100.00
3434;BME280;1730;41.932;25.548;2023-07-28T01:13:54;99073.47;;;19.69;100.00
3434;BME280;1730;41.932;25.548;2023-07-28T01:16:19;99077.34;;;19.55;100.00
3434;BME280;1730;41.932;25.548;2023-07-28T01:18:46;99077.47;;;19.67;100.00
3434;BME280;1730;41.932;25.548;2023-07-28T01:21:26;99077.78;;;19.46;100.00
3434;BME280;1730;41.932;25.548;2023-07-28T01:24:15;99076.09;;;19.51;100.00
3434;BME280;1730;41.932;25.548;2023-07-28T01:26:46;99093.03;;;19.73;100.00
3434;BME280;1730;41.932;25.548;2023-07-28T01:29:13;99084.94;;;19.40;100.00
3434;BME280;1730;41.932;25.548;2023-07-28T01:31:40;99085.87;;;19.14;100.00
3434;BME280;1730;41.932;25.548;2023-07-28T01:34:05;99091.28;;;19.34;100.00
3434;BME280;1730;41.932;25.548;2023-07-28T01:36:31;99093.06;;;19.02;100.00
3434;BME280;1730;41.932;25.548;2023-07-28T01:38:56;99082.75;;;19.04;100.00
3434;BME280;1730;41.932;25.548;2023-07-28T01:41:23;99094.09;;;19.08;100.00
3434;BME280;1730;41.932;25.548;2023-07-28T01:43:49;98997.53;;;18.50;100.00
3434;BME280;1730;41.932;25.548;2023-07-28T01:46:15;99099.38;;;19.03;100.00
3434;BME280;1730;41.932;25.548;2023-07-28T01:48:40;99101.06;;;18.97;100.00
3434;BME280;1730;41.932;25.548;2023-07-28T01:51:06;99098.38;;;18.71;100.00
3434;BME280;1730;41.932;25.548;2023-07-28T01:53:31;99098.12;;;18.79;100.00
3434;BME280;1730;41.932;25.548;2023-07-28T01:55:57;99100.25;;;18.70;100.00
3434;BME280;1730;41.932;25.548;2023-07-28T01:58:22;99100.06;;;18.72;100.00
3434;BME280;1730;41.932;25.548;2023-07-28T02:00:48;99097.94;;;18.74;100.00
3434;BME280;1730;41.932;25.548;2023-07-28T02:03:13;99100.47;;;18.62;100.00
3434;BME280;1730;41.932;25.548;2023-07-28T02:05:40;99098.38;;;18.71;100.00
3434;BME280;1730;41.932;25.548;2023-07-28T02:08:06;99096.91;;;18.62;100.00
3434;BME280;1730;41.932;25.548;2023-07-28T02:10:31;99105.94;;;18.62;100.00
3434;BME280;1730;41.932;25.548;2023-07-28T02:12:57;99105.53;;;18.59;100.00
3434;BME280;1730;41.932;25.548;2023-07-28T02:15:22;99111.19;;;18.70;100.00
3434;BME280;1730;41.932;25.548;2023-07-28T02:17:48;99112.22;;;18.56;100.00
3434;BME280;1730;41.932;25.548;2023-07-28T02:20:14;99107.81;;;18.62;100.00
3434;BME280;1730;41.932;25.548;2023-07-28T02:22:42;99100.88;;;18.39;100.00
3434;BME280;1730;41.932;25.548;2023-07-28T02:25:08;99130.03;;;18.13;100.00
3434;BME280;1730;41.932;25.548;2023-07-28T02:27:34;99122.00;;;17.91;100.00
3434;BME280;1730;41.932;25.548;2023-07-28T02:30:00;99117.09;;;17.61;100.00
3434;BME280;1730;41.932;25.548;2023-07-28T02:32:28;99135.19;;;17.75;100.00
3434;BME280;1730;41.932;25.548;2023-07-28T02:34:54;99131.38;;;17.69;100.00
3434;BME280;1730;41.932;25.548;2023-07-28T02:37:20;99131.84;;;17.79;100.00
3434;BME280;1730;41.932;25.548;2023-07-28T02:39:46;99131.75;;;17.60;100.00
3434;BME280;1730;41.932;25.548;2023-07-28T02:42:12;99135.13;;;17.62;100.00
3434;BME280;1730;41.932;25.548;2023-07-28T02:44:38;99100.13;;;16.90;100.00
3434;BME280;1730;41.932;25.548;2023-07-28T02:47:03;99080.16;;;16.48;100.00
3434;BME280;1730;41.932;25.548;2023-07-28T02:49:29;99139.72;;;16.86;100.00
3434;BME280;1730;41.932;25.548;2023-07-28T02:51:55;99127.53;;;16.82;100.00
3434;BME280;1730;41.932;25.548;2023-07-28T02:54:20;99153.59;;;17.25;100.00
3434;BME280;1730;41.932;25.548;2023-07-28T02:56:49;99158.16;;;16.84;100.00
3434;BME280;1730;41.932;25.548;2023-07-28T02:59:14;99171.59;;;16.64;100.00
3434;BME280;1730;41.932;25.548;2023-07-28T03:01:40;99151.94;;;16.47;100.00
3434;BME280;1730;41.932;25.548;2023-07-28T03:04:05;99161.03;;;16.76;100.00
3434;BME280;1730;41.932;25.548;2023-07-28T03:06:31;99117.44;;;16.27;100.00
3434;BME280;1730;41.932;25.548;2023-07-28T03:08:58;99172.63;;;16.20;100.00
3434;BME280;1730;41.932;25.548;2023-07-28T03:11:25;99174.19;;;16.08;100.00
3434;BME280;1730;41.932;25.548;2023-07-28T03:13:51;99168.28;;;16.05;100.00
3434;BME280;1730;41.932;25.548;2023-07-28T03:16:17;99170.03;;;16.12;100.00
3434;BME280;1730;41.932;25.548;2023-07-28T03:18:43;99163.03;;;16.24;100.00
3434;BME280;1730;41.932;25.548;2023-07-28T03:21:09;99165.88;;;16.16;100.00
3434;BME280;1730;41.932;25.548;2023-07-28T03:23:35;99163.94;;;16.10;100.00
3434;BME280;1730;41.932;25.548;2023-07-28T03:26:01;99163.13;;;16.10;100.00
3434;BME280;1730;41.932;25.548;2023-07-28T03:28:27;99184.81;;;16.24;100.00
3434;BME280;1730;41.932;25.548;2023-07-28T03:30:52;99164.41;;;16.14;100.00
3434;BME280;1730;41.932;25.548;2023-07-28T03:33:19;99168.28;;;16.05;100.00
3434;BME280;1730;41.932;25.548;2023-07-28T03:35:44;99138.84;;;15.72;100.00
3434;BME280;1730;41.932;25.548;2023-07-28T03:38:10;99182.78;;;15.91;100.00
3434;BME280;1730;41.932;25.548;2023-07-28T03:40:36;99185.94;;;15.94;100.00
3434;BME280;1730;41.932;25.548;2023-07-28T03:43:02;99189.78;;;16.00;100.00
3434;BME280;1730;41.932;25.548;2023-07-28T03:45:28;99194.56;;;15.98;100.00
3434;BME280;1730;41.932;25.548;2023-07-28T03:47:53;99195.38;;;16.13;100.00
3434;BME280;1730;41.932;25.548;2023-07-28T03:50:19;99201.41;;;16.72;100.00
3434;BME280;1730;41.932;25.548;2023-07-28T03:52:44;99181.94;;;17.31;100.00
3434;BME280;1730;41.932;25.548;2023-07-28T03:55:10;99178.16;;;17.73;100.00
3434;BME280;1730;41.932;25.548;2023-07-28T03:57:37;99115.41;;;17.60;100.00
3434;BME280;1730;41.932;25.548;2023-07-28T04:00:04;99156.72;;;18.24;100.00
3434;BME280;1730;41.932;25.548;2023-07-28T04:02:30;99160.56;;;18.88;100.00
3434;BME280;1730;41.932;25.548;2023-07-28T04:04:56;99175.47;;;18.79;100.00
3434;BME280;1730;41.932;25.548;2023-07-28T04:07:22;99169.34;;;19.23;100.00
3434;BME280;1730;41.932;25.548;2023-07-28T04:09:48;99150.38;;;19.35;100.00
3434;BME280;1730;41.932;25.548;2023-07-28T04:12:13;99165.53;;;19.95;100.00
3434;BME280;1730;41.932;25.548;2023-07-28T04:14:39;99180.19;;;20.14;100.00
3434;BME280;1730;41.932;25.548;2023-07-28T04:17:04;99141.16;;;20.18;100.00
3434;BME280;1730;41.932;25.548;2023-07-28T04:19:30;99170.34;;;20.69;100.00
3434;BME280;1730;41.932;25.548;2023-07-28T04:22:00;99160.78;;;20.53;100.00
3434;BME280;1730;41.932;25.548;2023-07-28T04:24:25;99181.06;;;21.45;100.00
3434;BME280;1730;41.932;25.548;2023-07-28T04:26:51;99182.34;;;21.79;100.00
3434;BME280;1730;41.932;25.548;2023-07-28T04:29:17;99124.13;;;21.40;100.00
3434;BME280;1730;41.932;25.548;2023-07-28T04:31:42;99143.22;;;21.83;100.00
3434;BME280;1730;41.932;25.548;2023-07-28T04:34:08;99159.78;;;21.95;100.00
3434;BME280;1730;41.932;25.548;2023-07-28T04:36:35;99168.47;;;22.52;100.00
3434;BME280;1730;41.932;25.548;2023-07-28T04:39:04;99197.03;;;22.92;100.00
3434;BME280;1730;41.932;25.548;2023-07-28T04:41:29;99081.78;;;22.26;100.00
3434;BME280;1730;41.932;25.548;2023-07-28T04:43:56;99183.19;;;22.99;100.00
3434;BME280;1730;41.932;25.548;2023-07-28T04:46:21;99177.09;;;23.43;100.00
3434;BME280;1730;41.932;25.548;2023-07-28T04:48:47;99177.87;;;24.30;99.69
3434;BME280;1730;41.932;25.548;2023-07-28T04:51:16;99174.94;;;24.37;97.68
3434;BME280;1730;41.932;25.548;2023-07-28T04:53:42;99172.59;;;24.29;100.00
3434;BME280;1730;41.932;25.548;2023-07-28T04:56:07;99180.69;;;25.47;87.60
3434;BME280;1730;41.932;25.548;2023-07-28T04:58:33;99162.31;;;26.18;79.50
3434;BME280;1730;41.932;25.548;2023-07-28T05:00:59;99183.94;;;26.21;81.10
3434;BME280;1730;41.932;25.548;2023-07-28T05:03:24;99151.84;;;26.46;73.56
3434;BME280;1730;41.932;25.548;2023-07-28T05:05:50;99188.78;;;27.16;70.08
3434;BME280;1730;41.932;25.548;2023-07-28T05:08:17;99165.06;;;27.82;63.11
3434;BME280;1730;41.932;25.548;2023-07-28T05:10:43;99171.38;;;27.62;64.04
3434;BME280;1730;41.932;25.548;2023-07-28T05:13:09;99193.47;;;28.09;61.44
3434;BME280;1730;41.932;25.548;2023-07-28T05:15:34;99197.91;;;29.18;57.30
3434;BME280;1730;41.932;25.548;2023-07-28T05:18:00;99192.16;;;27.65;63.64
3434;BME280;1730;41.932;25.548;2023-07-28T05:20:26;99193.47;;;27.15;65.05
3434;BME280;1730;41.932;25.548;2023-07-28T05:22:51;99170.19;;;26.84;69.39
3434;BME280;1730;41.932;25.548;2023-07-28T05:25:16;99166.75;;;27.36;62.46
3434;BME280;1730;41.932;25.548;2023-07-28T05:27:43;99151.09;;;26.83;64.60
3434;BME280;1730;41.932;25.548;2023-07-28T05:30:23;99200.69;;;27.21;69.64
3434;BME280;1730;41.932;25.548;2023-07-28T05:35:24;99206.63;;;28.29;61.56
3434;BME280;1730;41.932;25.548;2023-07-28T05:37:50;99155.69;;;28.86;100.00
3434;BME280;1730;41.932;25.548;2023-07-28T05:40:15;99138.97;;;29.62;72.75
3434;BME280;1730;41.932;25.548;2023-07-28T05:42:46;99151.22;;;28.59;57.00
3434;BME280;1730;41.932;25.548;2023-07-28T05:45:15;99212.66;;;29.34;78.39
3434;BME280;1730;41.932;25.548;2023-07-28T05:47:40;99156.53;;;28.96;70.46
3434;BME280;1730;41.932;25.548;2023-07-28T05:50:06;99216.81;;;29.21;60.79
3434;BME280;1730;41.932;25.548;2023-07-28T05:52:32;99109.81;;;29.29;54.36
3434;BME280;1730;41.932;25.548;2023-07-28T05:54:57;99221.78;;;29.75;53.41
3434;BME280;1730;41.932;25.548;2023-07-28T05:57:23;99214.56;;;29.28;59.76
3434;BME280;1730;41.932;25.548;2023-07-28T05:59:48;99130.97;;;29.09;53.08
3434;BME280;1730;41.932;25.548;2023-07-28T06:02:14;99225.72;;;29.33;58.64
3434;BME280;1730;41.932;25.548;2023-07-28T06:04:41;99226.50;;;29.64;57.62
3434;BME280;1730;41.932;25.548;2023-07-28T06:07:07;99226.56;;;29.34;52.24
3434;BME280;1730;41.932;25.548;2023-07-28T06:09:34;99215.47;;;30.28;50.67
3434;BME280;1730;41.932;25.548;2023-07-28T06:12:05;99211.78;;;29.64;52.28
3434;BME280;1730;41.932;25.548;2023-07-28T06:14:31;99220.38;;;30.57;53.06
3434;BME280;1730;41.932;25.548;2023-07-28T06:16:56;99240.34;;;30.05;50.18
3434;BME280;1730;41.932;25.548;2023-07-28T06:19:22;99234.56;;;29.91;53.70
3434;BME280;1730;41.932;25.548;2023-07-28T06:21:52;99235.69;;;29.60;54.90
3434;BME280;1730;41.932;25.548;2023-07-28T06:24:18;99241.13;;;30.20;53.41
3434;BME280;1730;41.932;25.548;2023-07-28T06:26:44;99239.25;;;31.77;51.71
3434;BME280;1730;41.932;25.548;2023-07-28T06:29:09;99233.00;;;30.88;47.26
3434;BME280;1730;41.932;25.548;2023-07-28T06:31:35;99244.19;;;31.22;48.39
3434;BME280;1730;41.932;25.548;2023-07-28T06:34:00;99235.78;;;30.34;45.78
3434;BME280;1730;41.932;25.548;2023-07-28T06:36:26;99242.66;;;29.37;47.48
3434;BME280;1730;41.932;25.548;2023-07-28T06:38:52;99241.50;;;29.88;46.01
3434;BME280;1730;41.932;25.548;2023-07-28T06:41:20;99237.63;;;30.59;44.37
3434;BME280;1730;41.932;25.548;2023-07-28T06:43:46;99222.69;;;30.34;45.77
3434;BME280;1730;41.932;25.548;2023-07-28T06:46:13;99199.53;;;29.65;46.15
3434;BME280;1730;41.932;25.548;2023-07-28T06:48:40;99225.66;;;29.84;48.55
3434;BME280;1730;41.932;25.548;2023-07-28T06:51:06;99219.50;;;30.66;44.39
3434;BME280;1730;41.932;25.548;2023-07-28T06:53:33;99219.31;;;30.37;45.34
3434;BME280;1730;41.932;25.548;2023-07-28T06:56:00;99190.78;;;30.12;45.04
3434;BME280;1730;41.932;25.548;2023-07-28T06:58:25;99195.94;;;29.69;47.38
3434;BME280;1730;41.932;25.548;2023-07-28T07:00:51;99204.69;;;30.76;48.04
3434;BME280;1730;41.932;25.548;2023-07-28T07:03:16;99206.00;;;30.34;46.66
3434;BME280;1730;41.932;25.548;2023-07-28T07:05:42;99199.56;;;29.19;45.10
3434;BME280;1730;41.932;25.548;2023-07-28T07:08:09;99196.19;;;29.63;45.86
3434;BME280;1730;41.932;25.548;2023-07-28T07:10:34;99200.72;;;29.38;47.51
3434;BME280;1730;41.932;25.548;2023-07-28T07:12:59;99167.34;;;29.18;49.15
3434;BME280;1730;41.932;25.548;2023-07-28T07:15:25;99200.59;;;29.99;46.92
3434;BME280;1730;41.932;25.548;2023-07-28T07:17:51;99029.66;;;28.87;47.03
3434;BME280;1730;41.932;25.548;2023-07-28T07:20:16;98988.78;;;27.91;45.75
3434;BME280;1730;41.932;25.548;2023-07-28T07:22:42;99174.69;;;28.11;48.82
3434;BME280;1730;41.932;25.548;2023-07-28T07:25:07;99070.87;;;27.92;50.14
3434;BME280;1730;41.932;25.548;2023-07-28T07:27:33;99198.72;;;28.01;50.09
3434;BME280;1730;41.932;25.548;2023-07-28T07:29:58;99196.88;;;27.27;50.35
3434;BME280;1730;41.932;25.548;2023-07-28T07:32:24;99192.50;;;27.78;52.51
3434;BME280;1730;41.932;25.548;2023-07-28T07:34:49;99193.00;;;27.65;50.21
3434;BME280;1730;41.932;25.548;2023-07-28T07:37:15;99193.84;;;27.29;49.85
3434;BME280;1730;41.932;25.548;2023-07-28T07:39:40;99113.53;;;27.81;49.47
3434;BME280;1730;41.932;25.548;2023-07-28T07:42:09;99174.56;;;29.14;49.56
3434;BME280;1730;41.932;25.548;2023-07-28T07:44:35;99193.97;;;29.70;46.90
3434;BME280;1730;41.932;25.548;2023-07-28T07:47:00;99190.84;;;28.45;44.05
3434;BME280;1730;41.932;25.548;2023-07-28T07:49:27;99184.22;;;28.66;42.67
3434;BME280;1730;41.932;25.548;2023-07-28T07:51:53;99193.63;;;28.45;44.66
3434;BME280;1730;41.932;25.548;2023-07-28T07:54:18;99004.69;;;28.41;45.84
3434;BME280;1730;41.932;25.548;2023-07-28T07:56:44;99190.97;;;29.10;41.85
3434;BME280;1730;41.932;25.548;2023-07-28T07:59:11;99169.03;;;29.04;45.26
3434;BME280;1730;41.932;25.548;2023-07-28T08:01:37;98782.53;;;27.21;43.27
3434;BME280;1730;41.932;25.548;2023-07-28T08:04:02;98933.09;;;27.72;43.64
3434;BME280;1730;41.932;25.548;2023-07-28T08:06:28;99179.00;;;29.40;42.37
3434;BME280;1730;41.932;25.548;2023-07-28T08:08:54;99184.31;;;29.22;41.94
3434;BME280;1730;41.932;25.548;2023-07-28T08:11:22;99177.34;;;29.24;41.32
3434;BME280;1730;41.932;25.548;2023-07-28T08:13:47;99173.47;;;29.20;41.27
3434;BME280;1730;41.932;25.548;2023-07-28T08:16:14;99169.22;;;28.42;40.64
3434;BME280;1730;41.932;25.548;2023-07-28T08:18:39;99146.19;;;28.61;41.88
3434;BME280;1730;41.932;25.548;2023-07-28T08:21:04;99127.62;;;28.67;41.37
3434;BME280;1730;41.932;25.548;2023-07-28T08:23:30;99119.28;;;28.42;41.35
3434;BME280;1730;41.932;25.548;2023-07-28T08:25:56;99154.16;;;28.12;40.38
3434;BME280;1730;41.932;25.548;2023-07-28T08:28:21;99156.13;;;28.27;41.99
3434;BME280;1730;41.932;25.548;2023-07-28T08:30:56;99153.22;;;27.92;41.62
3434;BME280;1730;41.932;25.548;2023-07-28T08:33:22;99149.00;;;27.32;42.36
3434;BME280;1730;41.932;25.548;2023-07-28T08:35:48;99100.31;;;28.03;44.12
3434;BME280;1730;41.932;25.548;2023-07-28T08:38:13;99141.69;;;28.15;43.02
3434;BME280;1730;41.932;25.548;2023-07-28T08:40:40;99138.78;;;27.85;43.54
3434;BME280;1730;41.932;25.548;2023-07-28T08:43:05;99048.69;;;27.87;42.67
3434;BME280;1730;41.932;25.548;2023-07-28T08:45:31;99001.63;;;26.83;46.39
3434;BME280;1730;41.932;25.548;2023-07-28T08:47:57;99138.50;;;27.86;45.57
3434;BME280;1730;41.932;25.548;2023-07-28T08:50:23;99128.12;;;27.61;44.79
3434;BME280;1730;41.932;25.548;2023-07-28T08:52:48;99135.41;;;27.30;48.51
3434;BME280;1730;41.932;25.548;2023-07-28T08:55:16;99133.41;;;27.63;47.34
3434;BME280;1730;41.932;25.548;2023-07-28T08:57:42;99045.56;;;27.63;45.94
3434;BME280;1730;41.932;25.548;2023-07-28T09:00:11;99129.50;;;28.21;44.41
3434;BME280;1730;41.932;25.548;2023-07-28T09:02:44;99136.00;;;27.85;44.17
3434;BME280;1730;41.932;25.548;2023-07-28T09:05:20;99094.72;;;27.36;42.72
3434;BME280;1730;41.932;25.548;2023-07-28T09:07:46;99095.72;;;26.83;42.91
3434;BME280;1730;41.932;25.548;2023-07-28T09:10:13;99061.56;;;27.04;45.46
3434;BME280;1730;41.932;25.548;2023-07-28T09:12:46;99109.63;;;27.72;42.79
3434;BME280;1730;41.932;25.548;2023-07-28T09:15:12;99116.09;;;27.98;43.87
3434;BME280;1730;41.932;25.548;2023-07-28T09:17:42;99098.12;;;27.48;41.58
3434;BME280;1730;41.932;25.548;2023-07-28T09:20:13;99118.31;;;27.02;41.48
3434;BME280;1730;41.932;25.548;2023-07-28T09:22:38;99117.28;;;27.13;43.28
3434;BME280;1730;41.932;25.548;2023-07-28T09:25:12;99112.56;;;27.50;41.64
3434;BME280;1730;41.932;25.548;2023-07-28T09:27:38;99110.56;;;28.03;42.14
3434;BME280;1730;41.932;25.548;2023-07-28T09:30:04;99108.97;;;27.50;42.52
3434;BME280;1730;41.932;25.548;2023-07-28T09:32:31;99105.22;;;27.34;43.16
3434;BME280;1730;41.932;25.548;2023-07-28T09:35:12;99094.53;;;27.48;43.60
3434;BME280;1730;41.932;25.548;2023-07-28T09:37:40;99096.31;;;27.74;42.06
3434;BME280;1730;41.932;25.548;2023-07-28T09:40:11;99100.19;;;27.68;43.01
3434;BME280;1730;41.932;25.548;2023-07-28T09:42:41;99021.47;;;27.69;43.43
3434;BME280;1730;41.932;25.548;2023-07-28T09:45:07;99104.00;;;28.39;40.21
3434;BME280;1730;41.932;25.548;2023-07-28T09:47:35;99092.59;;;28.15;40.29
3434;BME280;1730;41.932;25.548;2023-07-28T09:50:05;99085.03;;;28.01;39.98
3434;BME280;1730;41.932;25.548;2023-07-28T09:52:34;99075.97;;;28.36;41.84
3434;BME280;1730;41.932;25.548;2023-07-28T09:55:05;99077.09;;;28.30;39.88
3434;BME280;1730;41.932;25.548;2023-07-28T09:57:36;99071.25;;;28.61;41.76
3434;BME280;1730;41.932;25.548;2023-07-28T10:00:03;99078.22;;;28.94;39.66
3434;BME280;1730;41.932;25.548;2023-07-28T10:02:30;99037.91;;;29.17;40.55
3434;BME280;1730;41.932;25.548;2023-07-28T10:04:57;98984.69;;;28.75;39.51
3434;BME280;1730;41.932;25.548;2023-07-28T10:07:24;99050.66;;;29.33;39.92
3434;BME280;1730;41.932;25.548;2023-07-28T10:09:50;99064.41;;;29.69;39.54
3434;BME280;1730;41.932;25.548;2023-07-28T10:12:24;99052.16;;;29.75;38.98
3434;BME280;1730;41.932;25.548;2023-07-28T10:15:00;99069.47;;;29.57;38.97
3434;BME280;1730;41.932;25.548;2023-07-28T10:17:34;99055.94;;;29.40;38.02
3434;BME280;1730;41.932;25.548;2023-07-28T10:20:03;99059.28;;;29.17;37.89
3434;BME280;1730;41.932;25.548;2023-07-28T10:22:43;99046.84;;;28.53;39.14
3434;BME280;1730;41.932;25.548;2023-07-28T10:25:09;99044.62;;;28.20;38.92
3434;BME280;1730;41.932;25.548;2023-07-28T10:27:44;98964.19;;;28.15;39.38
3434;BME280;1730;41.932;25.548;2023-07-28T10:30:13;99020.75;;;28.44;38.38
3434;BME280;1730;41.932;25.548;2023-07-28T10:32:41;99037.41;;;28.39;38.62
3434;BME280;1730;41.932;25.548;2023-07-28T10:37:39;99025.47;;;28.94;39.53
3434;BME280;1730;41.932;25.548;2023-07-28T10:40:30;99020.44;;;28.96;38.19
3434;BME280;1730;41.932;25.548;2023-07-28T10:42:57;99023.44;;;29.20;38.61
3434;BME280;1730;41.932;25.548;2023-07-28T10:45:24;99015.03;;;29.50;36.41
3434;BME280;1730;41.932;25.548;2023-07-28T10:47:52;99012.06;;;29.22;36.83
3434;BME280;1730;41.932;25.548;2023-07-28T10:50:18;99000.78;;;28.67;37.07
3434;BME280;1730;41.932;25.548;2023-07-28T10:52:45;99002.94;;;29.01;37.48
3434;BME280;1730;41.932;25.548;2023-07-28T10:55:18;98905.63;;;28.47;37.66
3434;BME280;1730;41.932;25.548;2023-07-28T10:57:46;99003.84;;;28.86;36.97
3434;BME280;1730;41.932;25.548;2023-07-28T11:00:15;98894.84;;;28.25;36.57
3434;BME280;1730;41.932;25.548;2023-07-28T11:03:02;98998.28;;;28.61;36.72
3434;BME280;1730;41.932;25.548;2023-07-28T11:05:30;99003.84;;;28.76;36.44
3434;BME280;1730;41.932;25.548;2023-07-28T11:07:58;98979.25;;;29.34;37.30
3434;BME280;1730;41.932;25.548;2023-07-28T11:10:25;98984.53;;;29.89;36.69
3434;BME280;1730;41.932;25.548;2023-07-28T11:12:53;98988.75;;;29.77;35.92
3434;BME280;1730;41.932;25.548;2023-07-28T11:15:19;98895.03;;;29.38;35.18
3434;BME280;1730;41.932;25.548;2023-07-28T11:17:49;98988.37;;;29.93;35.54
3434;BME280;1730;41.932;25.548;2023-07-28T11:20:21;98977.44;;;30.07;36.15
3434;BME280;1730;41.932;25.548;2023-07-28T11:22:53;98979.00;;;30.23;35.33
3434;BME280;1730;41.932;25.548;2023-07-28T11:25:20;98974.78;;;30.26;35.31
3434;BME280;1730;41.932;25.548;2023-07-28T11:27:48;98974.25;;;30.24;36.11
3434;BME280;1730;41.932;25.548;2023-07-28T11:30:16;98975.22;;;30.38;34.41
3434;BME280;1730;41.932;25.548;2023-07-28T11:32:44;98969.28;;;29.77;35.33
3434;BME280;1730;41.932;25.548;2023-07-28T11:35:12;98964.59;;;29.72;35.24
3434;BME280;1730;41.932;25.548;2023-07-28T11:37:40;98965.03;;;29.94;35.57
3434;BME280;1730;41.932;25.548;2023-07-28T11:40:07;98942.00;;;29.40;35.22
3434;BME280;1730;41.932;25.548;2023-07-28T11:42:38;98974.47;;;29.44;35.25
3434;BME280;1730;41.932;25.548;2023-07-28T11:45:05;98964.13;;;29.55;35.40
3434;BME280;1730;41.932;25.548;2023-07-28T11:47:31;98930.53;;;29.95;35.31
3434;BME280;1730;41.932;25.548;2023-07-28T11:49:57;98778.50;;;29.13;35.11
3434;BME280;1730;41.932;25.548;2023-07-28T11:52:33;98958.22;;;30.73;34.63
3434;BME280;1730;41.932;25.548;2023-07-28T11:55:04;98957.47;;;30.92;34.12
3434;BME280;1730;41.932;25.548;2023-07-28T11:57:30;98955.13;;;31.27;33.86
3434;BME280;1730;41.932;25.548;2023-07-28T12:00:04;98952.09;;;31.00;33.67
3434;BME280;1730;41.932;25.548;2023-07-28T12:02:31;98957.47;;;31.39;34.36
3434;BME280;1730;41.932;25.548;2023-07-28T12:04:58;98950.41;;;30.99;34.27
3434;BME280;1730;41.932;25.548;2023-07-28T12:07:33;98938.81;;;30.92;34.52
3434;BME280;1730;41.932;25.548;2023-07-28T12:10:06;98942.63;;;31.01;34.45
3434;BME280;1730;41.932;25.548;2023-07-28T12:12:44;98932.31;;;30.73;34.44
3434;BME280;1730;41.932;25.548;2023-07-28T12:20:39;98937.22;;;31.10;34.02
3434;BME280;1730;41.932;25.548;2023-07-28T12:23:06;98902.91;;;31.14;33.91
3434;BME280;1730;41.932;25.548;2023-07-28T12:25:32;98918.47;;;31.58;33.73
3434;BME280;1730;41.932;25.548;2023-07-28T12:27:58;98916.88;;;31.33;33.19
3434;BME280;1730;41.932;25.548;2023-07-28T12:30:24;98789.84;;;30.66;34.15
3434;BME280;1730;41.932;25.548;2023-07-28T12:32:49;98910.94;;;31.16;33.47
3434;BME280;1730;41.932;25.548;2023-07-28T12:35:15;98890.53;;;31.02;34.22
3434;BME280;1730;41.932;25.548;2023-07-28T12:37:41;98895.53;;;31.00;34.40
3434;BME280;1730;41.932;25.548;2023-07-28T12:40:07;98891.22;;;30.88;35.06
3434;BME280;1730;41.932;25.548;2023-07-28T12:42:34;98888.44;;;30.88;35.13
3434;BME280;1730;41.932;25.548;2023-07-28T12:44:59;98885.72;;;31.26;34.84
3434;BME280;1730;41.932;25.548;2023-07-28T12:47:24;98892.91;;;31.69;34.29
3434;BME280;1730;41.932;25.548;2023-07-28T12:49:50;98887.06;;;30.62;34.33
3434;BME280;1730;41.932;25.548;2023-07-28T12:52:15;98877.19;;;30.75;35.17
3434;BME280;1730;41.932;25.548;2023-07-28T12:54:41;98872.72;;;30.98;34.87
3434;BME280;1730;41.932;25.548;2023-07-28T12:57:08;98873.72;;;30.83;35.44
3434;BME280;1730;41.932;25.548;2023-07-28T12:59:36;98873.50;;;30.56;35.07
3434;BME280;1730;41.932;25.548;2023-07-28T13:02:02;98870.09;;;30.59;35.03
3434;BME280;1730;41.932;25.548;2023-07-28T13:04:28;98867.31;;;30.59;35.83
3434;BME280;1730;41.932;25.548;2023-07-28T13:06:53;98830.16;;;30.50;34.96
3434;BME280;1730;41.932;25.548;2023-07-28T13:09:19;98870.94;;;30.83;35.32
3434;BME280;1730;41.932;25.548;2023-07-28T13:11:44;98860.94;;;30.82;34.64
3434;BME280;1730;41.932;25.548;2023-07-28T13:14:10;98816.81;;;30.47;35.20
3434;BME280;1730;41.932;25.548;2023-07-28T13:16:35;98856.06;;;30.69;35.48